createdAt,value
2023-04-18T00:00:35.037Z,7.20
2023-04-18T00:03:36.603Z,5.75
2023-04-18T00:06:38.173Z,5.32
2023-04-18T00:09:39.536Z,5.85
2023-04-18T00:12:40.839Z,5.97
2023-04-18T00:15:42.131Z,5.43
2023-04-18T00:18:43.404Z,6.00
2023-04-18T00:21:44.905Z,6.03
2023-04-18T00:24:46.361Z,5.47
2023-04-18T00:27:47.656Z,5.60
2023-04-18T00:30:49.013Z,6.80
2023-04-18T00:33:50.344Z,6.57
2023-04-18T00:36:51.627Z,5.95
2023-04-18T00:39:52.897Z,6.68
2023-04-18T00:42:54.173Z,5.22
2023-04-18T00:45:55.482Z,5.27
2023-04-18T00:48:56.770Z,6.55
2023-04-18T00:51:58.041Z,6.05
2023-04-18T00:54:59.323Z,5.95
2023-04-18T00:58:00.595Z,5.25
2023-04-18T01:01:01.894Z,5.43
2023-04-18T01:04:03.283Z,4.70
2023-04-18T01:07:04.649Z,5.93
2023-04-18T01:10:06.061Z,6.20
2023-04-18T01:13:07.366Z,5.32
2023-04-18T01:16:08.749Z,5.23
2023-04-18T01:19:10.117Z,5.10
2023-04-18T01:22:11.418Z,5.95
2023-04-18T01:25:12.713Z,6.95
2023-04-18T01:28:14.020Z,5.32
2023-04-18T01:31:15.369Z,5.90
2023-04-18T01:34:16.690Z,5.18
2023-04-18T01:37:17.988Z,5.63
2023-04-18T01:40:19.268Z,5.40
2023-04-18T01:43:20.602Z,5.55
2023-04-18T01:46:21.919Z,5.53
2023-04-18T01:49:23.235Z,5.05
2023-04-18T01:52:24.499Z,5.10
2023-04-18T01:55:25.774Z,6.03
2023-04-18T01:58:27.055Z,4.78
2023-04-18T02:01:28.343Z,5.20
2023-04-18T02:04:29.624Z,5.85
2023-04-18T02:07:30.913Z,5.15
2023-04-18T02:10:32.208Z,5.32
2023-04-18T02:13:33.499Z,6.07
2023-04-18T02:16:34.812Z,5.37
2023-04-18T02:19:36.121Z,5.35
2023-04-18T02:22:37.432Z,5.20
2023-04-18T02:25:38.733Z,5.50
2023-04-18T02:28:40.055Z,5.10
2023-04-18T02:31:41.426Z,5.53
2023-04-18T02:34:42.753Z,5.70
2023-04-18T02:37:44.061Z,5.70
2023-04-18T02:40:45.376Z,5.50
2023-04-18T02:43:46.648Z,6.20
2023-04-18T02:46:47.965Z,5.80
2023-04-18T02:49:49.260Z,5.60
2023-04-18T02:52:50.550Z,5.50
2023-04-18T02:55:51.843Z,5.07
2023-04-18T02:58:53.133Z,5.88
2023-04-18T03:01:54.485Z,5.93
2023-04-18T03:04:55.823Z,6.30
2023-04-18T03:07:57.172Z,5.28
2023-04-18T03:10:58.464Z,5.13
2023-04-18T03:13:59.777Z,5.55
2023-04-18T03:17:01.075Z,6.27
2023-04-18T03:20:02.386Z,5.20
2023-04-18T03:23:03.696Z,5.20
2023-04-18T03:26:05.010Z,4.97
2023-04-18T03:29:06.297Z,5.93
2023-04-18T03:32:07.621Z,6.07
2023-04-18T03:35:08.933Z,5.75
2023-04-18T03:38:10.234Z,4.75
2023-04-18T03:41:11.528Z,5.20
2023-04-18T03:44:13.065Z,5.28
2023-04-18T03:47:14.611Z,5.60
2023-04-18T03:50:15.904Z,5.53
2023-04-18T03:53:17.224Z,5.40
2023-04-18T03:56:18.556Z,6.03
2023-04-18T03:59:19.846Z,5.13
2023-04-18T04:02:21.296Z,8.10
2023-04-18T04:05:22.678Z,6.07
2023-04-18T04:08:24.003Z,6.35
2023-04-18T04:11:25.313Z,5.65
2023-04-18T04:14:26.607Z,7.18
2023-04-18T04:17:27.953Z,5.63
2023-04-18T04:20:29.313Z,7.03
2023-04-18T04:23:30.600Z,6.78
2023-04-18T04:26:31.912Z,6.97
2023-04-18T04:29:33.214Z,5.18
2023-04-18T04:32:34.519Z,8.13
2023-04-18T04:35:35.861Z,9.52
2023-04-18T04:38:37.163Z,6.03
2023-04-18T04:41:38.481Z,5.88
2023-04-18T04:44:39.829Z,6.07
2023-04-18T04:47:41.182Z,6.23
2023-04-18T04:50:42.521Z,5.88
2023-04-18T04:53:43.833Z,7.40
2023-04-18T04:56:45.129Z,7.78
2023-04-18T04:59:46.452Z,6.82
2023-04-18T05:02:47.984Z,6.67
2023-04-18T05:05:49.393Z,6.50
2023-04-18T05:08:50.690Z,6.93
2023-04-18T05:11:51.970Z,6.05
2023-04-18T05:14:53.274Z,6.13
2023-04-18T05:17:54.736Z,7.30
2023-04-18T05:20:56.123Z,6.32
2023-04-18T05:23:57.410Z,6.15
2023-04-18T05:26:58.689Z,8.65
2023-04-18T05:30:00.009Z,7.60
2023-04-18T05:33:01.420Z,8.17
2023-04-18T05:36:02.770Z,9.57
2023-04-18T05:39:04.101Z,10.13
2023-04-18T05:42:05.420Z,7.85
2023-04-18T05:45:06.726Z,11.00
2023-04-18T05:48:08.047Z,44.47
2023-04-18T05:51:11.034Z,59.42
2023-04-18T05:54:13.132Z,40.92
2023-04-18T05:57:14.624Z,23.05
2023-04-18T06:00:15.946Z,29.38
2023-04-18T06:03:17.540Z,23.30
2023-04-18T06:06:19.044Z,18.38
2023-04-18T06:09:20.364Z,23.73
2023-04-18T06:12:21.684Z,24.90
2023-04-18T06:15:22.977Z,17.70
2023-04-18T06:18:24.297Z,19.27
2023-04-18T06:21:25.797Z,18.90
2023-04-18T06:24:27.700Z,18.60
2023-04-18T06:27:31.611Z,24.08
2023-04-18T06:30:33.422Z,22.83
2023-04-18T06:33:34.752Z,22.03
2023-04-18T06:36:36.053Z,27.20
2023-04-18T06:39:37.392Z,20.75
2023-04-18T06:42:38.699Z,31.70
2023-04-18T06:45:40.050Z,30.60
2023-04-18T06:48:41.436Z,29.07
2023-04-18T06:51:42.718Z,32.10
2023-04-18T06:54:44.050Z,30.20
2023-04-18T06:57:45.343Z,23.63
2023-04-18T07:00:46.641Z,27.15
2023-04-18T07:03:48.094Z,24.47
2023-04-18T07:06:49.513Z,32.15
2023-04-18T07:09:50.829Z,31.00
2023-04-18T07:12:52.116Z,25.20
2023-04-18T07:15:53.443Z,25.77
2023-04-18T07:18:54.754Z,26.10
2023-04-18T07:21:56.095Z,26.83
2023-04-18T07:24:57.389Z,24.17
2023-04-18T07:27:58.700Z,13.73
2023-04-18T07:31:00.081Z,15.52
2023-04-18T07:34:01.448Z,17.47
2023-04-18T07:37:02.786Z,16.70
2023-04-18T07:40:04.087Z,21.70
2023-04-18T07:43:05.390Z,16.75
2023-04-18T07:46:06.711Z,84.40
2023-04-18T07:49:08.053Z,171.73
2023-04-18T07:52:09.413Z,96.53
2023-04-18T07:55:10.736Z,91.32
2023-04-18T07:58:12.035Z,74.53
2023-04-18T08:01:13.328Z,58.35
2023-04-18T08:04:14.822Z,60.53
2023-04-18T08:07:16.309Z,46.10
2023-04-18T08:10:17.640Z,58.63
2023-04-18T08:13:18.940Z,46.65
2023-04-18T08:16:20.376Z,51.92
2023-04-18T08:19:21.697Z,33.50
2023-04-18T08:22:23.041Z,29.10
2023-04-18T08:25:24.363Z,34.92
2023-04-18T08:28:25.695Z,40.42
2023-04-18T08:31:27.080Z,27.05
2023-04-18T08:34:28.420Z,32.77
2023-04-18T08:37:29.719Z,34.83
2023-04-18T08:40:31.025Z,23.55
2023-04-18T08:43:32.335Z,27.90
2023-04-18T08:46:33.677Z,30.77
2023-04-18T08:49:34.988Z,24.73
2023-04-18T08:52:36.406Z,29.40
2023-04-18T08:55:37.702Z,22.55
2023-04-18T08:58:39.070Z,24.75
2023-04-18T09:01:40.393Z,18.30
2023-04-18T09:04:41.780Z,17.13
2023-04-18T09:07:43.104Z,10.68
2023-04-18T09:10:46.475Z,9.20
2023-04-18T09:13:48.097Z,19.45
2023-04-18T09:16:49.420Z,13.45
2023-04-18T09:19:50.812Z,12.37
2023-04-18T09:22:52.156Z,16.67
2023-04-18T09:25:53.497Z,14.10
2023-04-18T09:28:54.791Z,19.95
2023-04-18T09:31:56.096Z,18.60
2023-04-18T09:34:57.405Z,15.73
2023-04-18T09:37:58.721Z,16.17
2023-04-18T09:41:00.047Z,15.30
2023-04-18T09:44:01.353Z,29.50
2023-04-18T09:47:02.664Z,139.35
2023-04-18T09:50:03.982Z,96.63
2023-04-18T09:53:05.269Z,78.78
2023-04-18T09:56:06.579Z,47.10
2023-04-18T09:59:07.902Z,38.97
2023-04-18T10:02:09.296Z,27.70
2023-04-18T10:05:10.727Z,23.23
2023-04-18T10:08:12.058Z,20.75
2023-04-18T10:11:13.391Z,21.05
2023-04-18T10:14:14.846Z,20.88
2023-04-18T10:17:16.324Z,27.70
2023-04-18T10:20:17.638Z,17.30
2023-04-18T10:23:19.019Z,30.92
2023-04-18T10:26:20.320Z,47.08
2023-04-18T10:29:21.636Z,45.13
2023-04-18T10:32:23.122Z,53.00
2023-04-18T10:35:24.482Z,47.73
2023-04-18T10:38:25.802Z,39.70
2023-04-18T10:41:27.107Z,38.40
2023-04-18T10:44:28.468Z,47.70
2023-04-18T10:47:29.856Z,29.08
2023-04-18T10:50:31.233Z,26.30
2023-04-18T10:53:32.538Z,18.35
2023-04-18T10:56:33.866Z,24.02
2023-04-18T10:59:35.220Z,15.30
2023-04-18T11:02:36.635Z,23.73
2023-04-18T11:05:38.064Z,19.30
2023-04-18T11:08:39.826Z,12.90
2023-04-18T11:11:41.143Z,16.80
2023-04-18T11:14:42.494Z,16.40
2023-04-18T11:17:43.867Z,11.75
2023-04-18T11:20:45.180Z,14.87
2023-04-18T11:23:46.513Z,17.67
2023-04-18T11:26:47.807Z,19.10
2023-04-18T11:29:49.157Z,11.95
2023-04-18T11:32:50.483Z,18.67
2023-04-18T11:35:51.788Z,21.77
2023-04-18T11:38:53.083Z,23.80
2023-04-18T11:41:54.379Z,24.52
2023-04-18T11:44:55.704Z,16.65
2023-04-18T11:47:57.048Z,14.93
2023-04-18T11:50:58.352Z,18.60
2023-04-18T11:53:59.666Z,21.92
2023-04-18T11:57:00.956Z,16.67
2023-04-18T12:00:02.275Z,22.90
2023-04-18T12:03:03.679Z,17.88
2023-04-18T12:06:05.349Z,22.50
2023-04-18T12:09:06.965Z,21.90
2023-04-18T12:12:08.316Z,19.85
2023-04-18T12:15:09.640Z,19.60
2023-04-18T12:18:10.952Z,24.05
2023-04-18T12:21:12.249Z,23.97
2023-04-18T12:24:13.805Z,18.50
2023-04-18T12:27:15.355Z,14.60
2023-04-18T12:30:16.704Z,10.65
2023-04-18T12:33:18.006Z,15.77
2023-04-18T12:36:19.290Z,11.13
2023-04-18T12:39:20.584Z,11.23
2023-04-18T12:42:21.883Z,12.88
2023-04-18T12:45:23.199Z,13.07
2023-04-18T12:48:24.513Z,18.10
2023-04-18T12:51:25.835Z,11.77
2023-04-18T12:54:27.147Z,15.05
2023-04-18T12:57:29.966Z,9.27
2023-04-18T13:00:33.172Z,14.82
2023-04-18T13:03:34.740Z,12.30
2023-04-18T13:06:36.133Z,8.87
2023-04-18T13:09:37.759Z,10.60
2023-04-18T13:12:39.117Z,10.93
2023-04-18T13:15:40.427Z,9.30
2023-04-18T13:18:41.765Z,12.10
2023-04-18T13:21:43.052Z,20.40
2023-04-18T13:24:44.410Z,8.68
2023-04-18T13:27:45.737Z,18.25
2023-04-18T13:30:47.057Z,30.83
2023-04-18T13:33:48.402Z,91.10
2023-04-18T13:36:50.866Z,84.20
2023-04-18T13:39:52.781Z,81.82
2023-04-18T13:42:54.072Z,61.63
2023-04-18T13:45:55.440Z,35.38
2023-04-18T13:48:56.816Z,40.85
2023-04-18T13:51:58.213Z,34.33
2023-04-18T13:54:59.541Z,35.63
2023-04-18T13:58:00.840Z,17.92
2023-04-18T14:01:02.182Z,27.13
2023-04-18T14:04:03.788Z,18.30
2023-04-18T14:07:05.207Z,11.33
2023-04-18T14:10:06.557Z,11.52
2023-04-18T14:13:07.865Z,27.38
2023-04-18T14:16:09.461Z,31.02
2023-04-18T14:19:10.825Z,13.48
2023-04-18T14:22:12.130Z,29.37
2023-04-18T14:25:13.403Z,21.98
2023-04-18T14:28:14.807Z,22.48
2023-04-18T14:31:16.165Z,24.70
2023-04-18T14:34:17.536Z,26.05
2023-04-18T14:37:18.853Z,19.10
2023-04-18T14:40:20.166Z,14.98
2023-04-18T14:43:21.472Z,13.30
2023-04-18T14:46:22.791Z,18.17
2023-04-18T14:49:24.115Z,13.88
2023-04-18T14:52:25.410Z,9.27
2023-04-18T14:55:26.683Z,14.07
2023-04-18T14:58:28.018Z,11.02
2023-04-18T15:01:29.364Z,100.07
2023-04-18T15:04:30.802Z,40.22
2023-04-18T15:07:32.177Z,46.97
2023-04-18T15:10:33.479Z,42.30
2023-04-18T15:13:34.760Z,38.15
2023-04-18T15:16:36.077Z,16.23
2023-04-18T15:19:37.402Z,29.35
2023-04-18T15:22:38.819Z,21.10
2023-04-18T15:25:40.153Z,15.65
2023-04-18T15:28:41.451Z,8.05
2023-04-18T15:31:42.782Z,13.48
2023-04-18T15:34:44.130Z,13.27
2023-04-18T15:37:45.460Z,14.17
2023-04-18T15:40:46.771Z,14.27
2023-04-18T15:43:48.092Z,9.98
2023-04-18T15:46:49.396Z,12.32
2023-04-18T15:49:50.705Z,12.65
2023-04-18T15:52:51.999Z,13.83
2023-04-18T15:55:53.312Z,12.15
2023-04-18T15:58:54.609Z,15.55
2023-04-18T16:01:56.083Z,13.30
2023-04-18T16:04:57.553Z,9.30
2023-04-18T16:07:58.870Z,11.80
2023-04-18T16:11:00.174Z,7.18
2023-04-18T16:14:01.508Z,12.43
2023-04-18T16:17:02.812Z,7.68
2023-04-18T16:20:04.153Z,9.07
2023-04-18T16:23:05.461Z,6.13
2023-04-18T16:26:06.765Z,10.70
2023-04-18T16:29:08.050Z,6.78
2023-04-18T16:32:09.370Z,9.93
2023-04-18T16:35:10.737Z,7.82
2023-04-18T16:38:12.285Z,11.30
2023-04-18T16:41:13.660Z,9.40
2023-04-18T16:44:15.213Z,8.98
2023-04-18T16:47:16.685Z,11.50
2023-04-18T16:50:18.282Z,12.27
2023-04-18T16:53:19.693Z,8.53
2023-04-18T16:56:21.018Z,10.60
2023-04-18T16:59:22.331Z,7.03
2023-04-18T17:02:23.781Z,9.45
2023-04-18T17:05:25.148Z,7.43
2023-04-18T17:08:26.457Z,7.20
2023-04-18T17:11:27.764Z,5.47
2023-04-18T17:14:29.171Z,7.70
2023-04-18T17:17:30.827Z,6.35
2023-04-18T17:20:32.240Z,7.13
2023-04-18T17:23:33.514Z,6.27
2023-04-18T17:26:35.182Z,7.20
2023-04-18T17:29:36.638Z,7.70
2023-04-18T17:32:38.485Z,6.47
2023-04-18T17:35:43.871Z,5.72
2023-04-18T17:38:45.709Z,7.13
2023-04-18T17:41:47.533Z,7.35
2023-04-18T17:44:49.306Z,6.75
2023-04-18T17:47:51.164Z,7.47
2023-04-18T17:50:52.795Z,7.07
2023-04-18T17:53:54.212Z,5.90
2023-04-18T17:56:56.010Z,6.05
2023-04-18T17:59:57.822Z,7.30
2023-04-18T18:02:59.367Z,6.57
2023-04-18T18:06:01.811Z,6.53
2023-04-18T18:09:03.735Z,5.83
2023-04-18T18:12:06.074Z,5.13
2023-04-18T18:15:07.473Z,6.63
2023-04-18T18:18:09.656Z,6.63
2023-04-18T18:21:11.614Z,5.18
2023-04-18T18:24:13.164Z,6.93
2023-04-18T18:27:14.881Z,5.40
2023-04-18T18:30:16.702Z,6.15
2023-04-18T18:33:19.068Z,5.38
2023-04-18T18:36:21.270Z,4.60
2023-04-18T18:39:23.058Z,5.37
2023-04-18T18:42:24.939Z,5.03
2023-04-18T18:45:27.824Z,5.20
2023-04-18T18:48:29.576Z,5.38
2023-04-18T18:51:30.916Z,4.15
2023-04-18T18:54:32.206Z,4.37
2023-04-18T18:57:33.989Z,4.90
2023-04-18T19:00:35.869Z,3.92
2023-04-18T19:03:37.955Z,4.18
2023-04-18T19:06:40.015Z,4.63
2023-04-18T19:09:41.928Z,3.70
2023-04-18T19:12:44.851Z,4.25
2023-04-18T19:15:46.751Z,4.07
2023-04-18T19:18:48.638Z,4.72
2023-04-18T19:21:50.703Z,4.40
2023-04-18T19:24:52.719Z,4.07
2023-04-18T19:27:54.609Z,4.95
2023-04-18T19:30:56.540Z,4.47
2023-04-18T19:33:59.344Z,4.47
2023-04-18T19:37:01.399Z,5.18
2023-04-18T19:40:02.949Z,4.07
2023-04-18T19:43:05.322Z,4.47
2023-04-18T19:46:07.267Z,4.07
2023-04-18T19:49:09.372Z,4.28
2023-04-18T19:52:11.286Z,3.60
2023-04-18T19:55:12.813Z,4.60
2023-04-18T19:58:14.481Z,3.30
2023-04-18T20:01:16.406Z,3.78
2023-04-18T20:04:20.866Z,4.78
2023-04-18T20:07:24.215Z,4.57
2023-04-18T20:10:27.933Z,3.73
2023-04-18T20:13:29.745Z,4.18
2023-04-18T20:16:31.207Z,4.65
2023-04-18T20:19:32.968Z,3.55
2023-04-18T20:22:34.818Z,3.92
2023-04-18T20:25:36.730Z,4.13
2023-04-18T20:28:38.657Z,3.85
2023-04-18T20:31:40.531Z,3.58
2023-04-18T20:34:41.941Z,3.67
2023-04-18T20:37:44.765Z,3.25
2023-04-18T20:40:46.272Z,4.20
2023-04-18T20:43:47.743Z,3.40
2023-04-18T20:46:49.102Z,4.50
2023-04-18T20:49:50.479Z,3.50
2023-04-18T20:52:51.798Z,3.92
2023-04-18T20:55:53.129Z,3.47
2023-04-18T20:58:54.658Z,4.57
2023-04-18T21:01:56.339Z,3.72
2023-04-18T21:04:57.765Z,3.33
2023-04-18T21:07:59.076Z,4.95
2023-04-18T21:11:00.406Z,2.97
2023-04-18T21:14:01.765Z,5.30
2023-04-18T21:17:03.109Z,3.33
2023-04-18T21:20:04.411Z,3.17
2023-04-18T21:23:05.715Z,3.70
2023-04-18T21:26:07.026Z,2.97
2023-04-18T21:29:08.310Z,3.47
2023-04-18T21:32:09.609Z,3.60
2023-04-18T21:35:10.924Z,3.25
2023-04-18T21:38:12.231Z,3.17
2023-04-18T21:41:13.541Z,3.10
2023-04-18T21:44:14.973Z,2.97
2023-04-18T21:47:16.406Z,3.35
2023-04-18T21:50:17.736Z,3.50
2023-04-18T21:53:19.058Z,2.83
2023-04-18T21:56:20.350Z,3.47
2023-04-18T21:59:21.664Z,4.45
2023-04-18T22:02:23.086Z,3.00
2023-04-18T22:05:24.436Z,3.08
2023-04-18T22:08:25.877Z,3.28
2023-04-18T22:11:27.224Z,3.03
2023-04-18T22:14:28.516Z,3.92
2023-04-18T22:17:29.804Z,3.17
2023-04-18T22:20:31.143Z,4.20
2023-04-18T22:23:32.435Z,3.88
2023-04-18T22:26:33.755Z,2.73
2023-04-18T22:29:35.041Z,3.55
2023-04-18T22:32:36.414Z,3.63
2023-04-18T22:35:37.748Z,3.65
2023-04-18T22:38:39.046Z,4.20
2023-04-18T22:41:40.361Z,3.30
2023-04-18T22:44:41.663Z,3.05
2023-04-18T22:47:43.035Z,3.22
2023-04-18T22:50:44.384Z,3.42
2023-04-18T22:53:45.691Z,4.57
2023-04-18T22:56:46.981Z,3.03
2023-04-18T22:59:48.287Z,4.30
2023-04-18T23:02:49.740Z,4.00
2023-04-18T23:05:51.108Z,4.05
2023-04-18T23:08:52.413Z,3.95
2023-04-18T23:11:53.728Z,3.83
2023-04-18T23:14:55.036Z,3.58
2023-04-18T23:17:56.378Z,3.20
2023-04-18T23:20:57.709Z,4.10
2023-04-18T23:23:59.025Z,3.58
2023-04-18T23:27:00.312Z,3.13
2023-04-18T23:30:01.620Z,3.30
2023-04-18T23:33:02.997Z,3.40
2023-04-18T23:36:04.349Z,3.40
2023-04-18T23:39:05.645Z,4.28
2023-04-18T23:42:07.142Z,3.30
2023-04-18T23:45:08.438Z,4.68
2023-04-18T23:48:09.742Z,3.60
2023-04-18T23:51:11.033Z,3.55
2023-04-18T23:54:12.377Z,3.85
2023-04-18T23:57:13.702Z,4.03
